sensor_id;sensor_type;location;lat;lon;timestamp;P1;durP1;ratioP1;P2;durP2;ratioP2
75169;SDS011;63749;49.186;9.222;2023-11-21T00:02:20;4.33;;;1.40;;
75169;SDS011;63749;49.186;9.222;2023-11-21T00:04:46;4.55;;;1.20;;
75169;SDS011;63749;49.186;9.222;2023-11-21T00:07:12;4.05;;;1.27;;
75169;SDS011;63749;49.186;9.222;2023-11-21T00:09:38;4.53;;;1.10;;
75169;SDS011;63749;49.186;9.222;2023-11-21T00:12:06;4.22;;;1.10;;
75169;SDS011;63749;49.186;9.222;2023-11-21T00:14:36;2.50;;;1.10;;
75169;SDS011;63749;49.186;9.222;2023-11-21T00:17:04;4.20;;;1.30;;
75169;SDS011;63749;49.186;9.222;2023-11-21T00:19:30;3.47;;;1.50;;
75169;SDS011;63749;49.186;9.222;2023-11-21T00:21:56;11.15;;;4.30;;
75169;SDS011;63749;49.186;9.222;2023-11-21T00:24:23;6.85;;;3.47;;
75169;SDS011;63749;49.186;9.222;2023-11-21T00:26:49;3.97;;;2.37;;
75169;SDS011;63749;49.186;9.222;2023-11-21T00:29:15;4.40;;;2.30;;
75169;SDS011;63749;49.186;9.222;2023-11-21T00:31:43;4.35;;;2.50;;
75169;SDS011;63749;49.186;9.222;2023-11-21T00:34:11;7.00;;;2.50;;
75169;SDS011;63749;49.186;9.222;2023-11-21T00:36:37;3.47;;;1.67;;
75169;SDS011;63749;49.186;9.222;2023-11-21T00:39:02;3.50;;;1.50;;
75169;SDS011;63749;49.186;9.222;2023-11-21T00:41:34;4.82;;;1.23;;
75169;SDS011;63749;49.186;9.222;2023-11-21T00:44:01;4.10;;;1.25;;
75169;SDS011;63749;49.186;9.222;2023-11-21T00:46:27;5.07;;;1.20;;
75169;SDS011;63749;49.186;9.222;2023-11-21T00:48:54;4.70;;;1.20;;
75169;SDS011;63749;49.186;9.222;2023-11-21T00:51:20;4.38;;;1.30;;
75169;SDS011;63749;49.186;9.222;2023-11-21T00:53:47;4.13;;;1.15;;
75169;SDS011;63749;49.186;9.222;2023-11-21T00:56:12;2.17;;;1.13;;
75169;SDS011;63749;49.186;9.222;2023-11-21T00:58:38;3.30;;;1.23;;
75169;SDS011;63749;49.186;9.222;2023-11-21T01:01:08;3.88;;;1.23;;
75169;SDS011;63749;49.186;9.222;2023-11-21T01:03:35;4.47;;;1.52;;
75169;SDS011;63749;49.186;9.222;2023-11-21T01:06:00;2.83;;;1.60;;
75169;SDS011;63749;49.186;9.222;2023-11-21T01:08:27;5.13;;;1.70;;
75169;SDS011;63749;49.186;9.222;2023-11-21T01:10:54;4.50;;;1.50;;
75169;SDS011;63749;49.186;9.222;2023-11-21T01:13:20;3.42;;;1.60;;
75169;SDS011;63749;49.186;9.222;2023-11-21T01:15:48;5.45;;;2.33;;
75169;SDS011;63749;49.186;9.222;2023-11-21T01:18:14;7.93;;;3.97;;
75169;SDS011;63749;49.186;9.222;2023-11-21T01:20:41;6.93;;;4.20;;
75169;SDS011;63749;49.186;9.222;2023-11-21T01:23:12;9.02;;;5.43;;
75169;SDS011;63749;49.186;9.222;2023-11-21T01:25:38;7.82;;;4.55;;
75169;SDS011;63749;49.186;9.222;2023-11-21T01:28:04;8.85;;;5.40;;
75169;SDS011;63749;49.186;9.222;2023-11-21T01:30:32;9.30;;;5.37;;
75169;SDS011;63749;49.186;9.222;2023-11-21T01:32:58;7.05;;;4.93;;
75169;SDS011;63749;49.186;9.222;2023-11-21T01:35:24;9.98;;;6.53;;
75169;SDS011;63749;49.186;9.222;2023-11-21T01:37:53;9.48;;;5.80;;
75169;SDS011;63749;49.186;9.222;2023-11-21T01:40:20;9.60;;;6.20;;
75169;SDS011;63749;49.186;9.222;2023-11-21T01:42:46;9.67;;;4.53;;
75169;SDS011;63749;49.186;9.222;2023-11-21T01:45:12;10.57;;;4.63;;
75169;SDS011;63749;49.186;9.222;2023-11-21T01:47:38;6.40;;;3.23;;
75169;SDS011;63749;49.186;9.222;2023-11-21T01:50:07;4.03;;;1.95;;
75169;SDS011;63749;49.186;9.222;2023-11-21T01:52:34;4.60;;;1.60;;
75169;SDS011;63749;49.186;9.222;2023-11-21T01:55:01;3.78;;;1.80;;
75169;SDS011;63749;49.186;9.222;2023-11-21T01:57:28;7.17;;;3.00;;
75169;SDS011;63749;49.186;9.222;2023-11-21T01:59:56;5.07;;;3.13;;
75169;SDS011;63749;49.186;9.222;2023-11-21T02:02:37;6.95;;;4.32;;
75169;SDS011;63749;49.186;9.222;2023-11-21T02:05:03;9.35;;;4.68;;
75169;SDS011;63749;49.186;9.222;2023-11-21T02:07:29;10.23;;;5.28;;
75169;SDS011;63749;49.186;9.222;2023-11-21T02:09:55;6.27;;;3.73;;
75169;SDS011;63749;49.186;9.222;2023-11-21T02:12:21;7.53;;;3.67;;
75169;SDS011;63749;49.186;9.222;2023-11-21T02:14:47;4.68;;;3.10;;
75169;SDS011;63749;49.186;9.222;2023-11-21T02:17:13;6.07;;;2.90;;
75169;SDS011;63749;49.186;9.222;2023-11-21T02:19:39;10.17;;;3.50;;
75169;SDS011;63749;49.186;9.222;2023-11-21T02:22:06;7.93;;;5.20;;
75169;SDS011;63749;49.186;9.222;2023-11-21T02:24:33;10.18;;;6.20;;
75169;SDS011;63749;49.186;9.222;2023-11-21T02:26:59;10.97;;;6.67;;
75169;SDS011;63749;49.186;9.222;2023-11-21T02:29:26;9.30;;;6.57;;
75169;SDS011;63749;49.186;9.222;2023-11-21T02:31:53;10.63;;;6.40;;
75169;SDS011;63749;49.186;9.222;2023-11-21T02:34:20;10.33;;;5.50;;
75169;SDS011;63749;49.186;9.222;2023-11-21T02:36:47;8.30;;;6.38;;
75169;SDS011;63749;49.186;9.222;2023-11-21T02:39:14;10.25;;;6.60;;
75169;SDS011;63749;49.186;9.222;2023-11-21T02:41:42;8.75;;;5.30;;
75169;SDS011;63749;49.186;9.222;2023-11-21T02:44:08;8.07;;;5.35;;
75169;SDS011;63749;49.186;9.222;2023-11-21T02:46:35;8.60;;;5.50;;
75169;SDS011;63749;49.186;9.222;2023-11-21T02:49:01;7.40;;;4.78;;
75169;SDS011;63749;49.186;9.222;2023-11-21T02:51:27;6.70;;;4.00;;
75169;SDS011;63749;49.186;9.222;2023-11-21T02:53:53;6.73;;;4.40;;
75169;SDS011;63749;49.186;9.222;2023-11-21T02:56:19;6.85;;;4.60;;
75169;SDS011;63749;49.186;9.222;2023-11-21T02:58:45;7.47;;;5.30;;
75169;SDS011;63749;49.186;9.222;2023-11-21T03:01:12;9.20;;;5.77;;
75169;SDS011;63749;49.186;9.222;2023-11-21T03:03:38;10.23;;;7.22;;
75169;SDS011;63749;49.186;9.222;2023-11-21T03:06:06;13.13;;;9.63;;
75169;SDS011;63749;49.186;9.222;2023-11-21T03:08:32;16.20;;;10.27;;
75169;SDS011;63749;49.186;9.222;2023-11-21T03:10:58;13.18;;;9.52;;
75169;SDS011;63749;49.186;9.222;2023-11-21T03:13:23;12.87;;;9.27;;
75169;SDS011;63749;49.186;9.222;2023-11-21T03:15:50;11.45;;;7.90;;
75169;SDS011;63749;49.186;9.222;2023-11-21T03:18:15;14.03;;;8.60;;
75169;SDS011;63749;49.186;9.222;2023-11-21T03:20:43;8.75;;;4.60;;
75169;SDS011;63749;49.186;9.222;2023-11-21T03:23:11;7.65;;;3.40;;
75169;SDS011;63749;49.186;9.222;2023-11-21T03:25:36;5.33;;;2.57;;
75169;SDS011;63749;49.186;9.222;2023-11-21T03:28:02;5.93;;;2.60;;
75169;SDS011;63749;49.186;9.222;2023-11-21T03:30:29;4.75;;;2.00;;
75169;SDS011;63749;49.186;9.222;2023-11-21T03:32:55;4.32;;;1.77;;
75169;SDS011;63749;49.186;9.222;2023-11-21T03:35:23;4.78;;;1.80;;
75169;SDS011;63749;49.186;9.222;2023-11-21T03:37:49;4.60;;;1.80;;
75169;SDS011;63749;49.186;9.222;2023-11-21T03:40:16;5.43;;;1.70;;
75169;SDS011;63749;49.186;9.222;2023-11-21T03:42:46;2.67;;;1.60;;
75169;SDS011;63749;49.186;9.222;2023-11-21T03:45:12;5.85;;;2.35;;
75169;SDS011;63749;49.186;9.222;2023-11-21T03:47:42;7.70;;;3.88;;
75169;SDS011;63749;49.186;9.222;2023-11-21T03:50:09;9.38;;;4.72;;
75169;SDS011;63749;49.186;9.222;2023-11-21T03:52:37;10.63;;;6.72;;
75169;SDS011;63749;49.186;9.222;2023-11-21T03:55:03;11.97;;;7.67;;
75169;SDS011;63749;49.186;9.222;2023-11-21T03:57:30;14.57;;;9.32;;
75169;SDS011;63749;49.186;9.222;2023-11-21T03:59:55;13.32;;;9.10;;
75169;SDS011;63749;49.186;9.222;2023-11-21T04:02:22;13.30;;;7.82;;
75169;SDS011;63749;49.186;9.222;2023-11-21T04:05:05;12.10;;;8.20;;
75169;SDS011;63749;49.186;9.222;2023-11-21T04:07:32;13.20;;;8.13;;
75169;SDS011;63749;49.186;9.222;2023-11-21T04:09:58;13.80;;;8.82;;
75169;SDS011;63749;49.186;9.222;2023-11-21T04:12:26;12.88;;;8.85;;
75169;SDS011;63749;49.186;9.222;2023-11-21T04:14:53;13.50;;;9.67;;
75169;SDS011;63749;49.186;9.222;2023-11-21T04:17:18;12.20;;;7.95;;
75169;SDS011;63749;49.186;9.222;2023-11-21T04:19:46;10.33;;;7.20;;
75169;SDS011;63749;49.186;9.222;2023-11-21T04:22:12;6.80;;;5.20;;
75169;SDS011;63749;49.186;9.222;2023-11-21T04:24:37;11.07;;;6.40;;
75169;SDS011;63749;49.186;9.222;2023-11-21T04:27:03;13.93;;;10.00;;
75169;SDS011;63749;49.186;9.222;2023-11-21T04:29:28;17.00;;;11.83;;
75169;SDS011;63749;49.186;9.222;2023-11-21T04:31:55;17.67;;;11.73;;
75169;SDS011;63749;49.186;9.222;2023-11-21T04:34:20;13.15;;;9.43;;
75169;SDS011;63749;49.186;9.222;2023-11-21T04:36:45;10.67;;;7.13;;
75169;SDS011;63749;49.186;9.222;2023-11-21T04:39:11;6.40;;;4.20;;
75169;SDS011;63749;49.186;9.222;2023-11-21T04:41:37;6.22;;;4.22;;
75169;SDS011;63749;49.186;9.222;2023-11-21T04:44:05;11.02;;;7.20;;
75169;SDS011;63749;49.186;9.222;2023-11-21T04:46:31;15.70;;;9.73;;
75169;SDS011;63749;49.186;9.222;2023-11-21T04:48:57;17.07;;;12.93;;
75169;SDS011;63749;49.186;9.222;2023-11-21T04:51:24;18.88;;;13.77;;
75169;SDS011;63749;49.186;9.222;2023-11-21T04:53:50;18.88;;;12.18;;
75169;SDS011;63749;49.186;9.222;2023-11-21T04:56:16;10.73;;;7.57;;
75169;SDS011;63749;49.186;9.222;2023-11-21T04:58:42;6.90;;;3.60;;
75169;SDS011;63749;49.186;9.222;2023-11-21T05:01:08;10.90;;;3.78;;
75169;SDS011;63749;49.186;9.222;2023-11-21T05:03:33;7.60;;;2.90;;
75169;SDS011;63749;49.186;9.222;2023-11-21T05:06:01;8.90;;;3.03;;
75169;SDS011;63749;49.186;9.222;2023-11-21T05:08:30;6.33;;;2.77;;
75169;SDS011;63749;49.186;9.222;2023-11-21T05:10:55;8.38;;;2.78;;
75169;SDS011;63749;49.186;9.222;2023-11-21T05:13:24;9.38;;;3.00;;
75169;SDS011;63749;49.186;9.222;2023-11-21T05:15:54;5.47;;;2.43;;
75169;SDS011;63749;49.186;9.222;2023-11-21T05:18:21;6.82;;;2.63;;
75169;SDS011;63749;49.186;9.222;2023-11-21T05:20:48;10.90;;;2.70;;
75169;SDS011;63749;49.186;9.222;2023-11-21T05:23:13;6.03;;;2.90;;
75169;SDS011;63749;49.186;9.222;2023-11-21T05:25:40;6.47;;;2.85;;
75169;SDS011;63749;49.186;9.222;2023-11-21T05:28:06;9.40;;;3.45;;
75169;SDS011;63749;49.186;9.222;2023-11-21T05:30:32;8.40;;;3.20;;
75169;SDS011;63749;49.186;9.222;2023-11-21T05:32:57;6.63;;;3.65;;
75169;SDS011;63749;49.186;9.222;2023-11-21T05:35:23;8.10;;;4.90;;
75169;SDS011;63749;49.186;9.222;2023-11-21T05:37:48;10.50;;;6.70;;
75169;SDS011;63749;49.186;9.222;2023-11-21T05:40:13;12.17;;;7.53;;
75169;SDS011;63749;49.186;9.222;2023-11-21T05:42:39;13.47;;;7.10;;
75169;SDS011;63749;49.186;9.222;2023-11-21T05:45:06;16.57;;;6.77;;
75169;SDS011;63749;49.186;9.222;2023-11-21T05:47:42;13.23;;;5.50;;
75169;SDS011;63749;49.186;9.222;2023-11-21T05:50:11;10.90;;;4.65;;
75169;SDS011;63749;49.186;9.222;2023-11-21T05:52:39;10.60;;;5.05;;
75169;SDS011;63749;49.186;9.222;2023-11-21T05:55:05;16.52;;;8.98;;
75169;SDS011;63749;49.186;9.222;2023-11-21T05:57:35;24.93;;;15.83;;
75169;SDS011;63749;49.186;9.222;2023-11-21T06:00:09;26.80;;;18.52;;
75169;SDS011;63749;49.186;9.222;2023-11-21T06:02:46;25.15;;;17.70;;
75169;SDS011;63749;49.186;9.222;2023-11-21T06:05:16;24.67;;;17.42;;
75169;SDS011;63749;49.186;9.222;2023-11-21T06:07:43;26.67;;;17.70;;
75169;SDS011;63749;49.186;9.222;2023-11-21T06:10:08;22.23;;;15.53;;
75169;SDS011;63749;49.186;9.222;2023-11-21T06:12:36;19.63;;;13.60;;
75169;SDS011;63749;49.186;9.222;2023-11-21T06:15:02;21.80;;;15.60;;
75169;SDS011;63749;49.186;9.222;2023-11-21T06:17:30;26.60;;;18.58;;
75169;SDS011;63749;49.186;9.222;2023-11-21T06:19:57;21.10;;;13.20;;
75169;SDS011;63749;49.186;9.222;2023-11-21T06:22:22;16.33;;;11.17;;
75169;SDS011;63749;49.186;9.222;2023-11-21T06:24:48;14.83;;;9.13;;
75169;SDS011;63749;49.186;9.222;2023-11-21T06:27:15;14.23;;;8.90;;
75169;SDS011;63749;49.186;9.222;2023-11-21T06:29:41;17.20;;;8.70;;
75169;SDS011;63749;49.186;9.222;2023-11-21T06:32:07;11.83;;;6.77;;
75169;SDS011;63749;49.186;9.222;2023-11-21T06:34:33;10.23;;;6.00;;
75169;SDS011;63749;49.186;9.222;2023-11-21T06:37:11;12.52;;;5.93;;
75169;SDS011;63749;49.186;9.222;2023-11-21T06:39:37;11.82;;;4.60;;
75169;SDS011;63749;49.186;9.222;2023-11-21T06:42:03;8.57;;;4.30;;
75169;SDS011;63749;49.186;9.222;2023-11-21T06:44:29;12.30;;;4.57;;
75169;SDS011;63749;49.186;9.222;2023-11-21T06:46:54;14.30;;;5.37;;
75169;SDS011;63749;49.186;9.222;2023-11-21T06:49:20;16.13;;;5.60;;
75169;SDS011;63749;49.186;9.222;2023-11-21T06:51:45;11.90;;;5.33;;
75169;SDS011;63749;49.186;9.222;2023-11-21T06:54:10;13.67;;;4.60;;
75169;SDS011;63749;49.186;9.222;2023-11-21T06:56:36;9.20;;;3.60;;
75169;SDS011;63749;49.186;9.222;2023-11-21T06:59:01;10.20;;;3.58;;
75169;SDS011;63749;49.186;9.222;2023-11-21T07:01:28;14.23;;;7.50;;
75169;SDS011;63749;49.186;9.222;2023-11-21T07:03:53;13.70;;;4.60;;
75169;SDS011;63749;49.186;9.222;2023-11-21T07:06:18;10.82;;;5.13;;
75169;SDS011;63749;49.186;9.222;2023-11-21T07:08:44;11.87;;;5.87;;
75169;SDS011;63749;49.186;9.222;2023-11-21T07:11:09;14.67;;;6.43;;
75169;SDS011;63749;49.186;9.222;2023-11-21T07:13:34;11.87;;;5.27;;
75169;SDS011;63749;49.186;9.222;2023-11-21T07:16:01;17.70;;;5.80;;
75169;SDS011;63749;49.186;9.222;2023-11-21T07:18:26;11.13;;;5.50;;
75169;SDS011;63749;49.186;9.222;2023-11-21T07:20:51;8.47;;;4.10;;
75169;SDS011;63749;49.186;9.222;2023-11-21T07:23:17;9.20;;;3.90;;
75169;SDS011;63749;49.186;9.222;2023-11-21T07:25:42;7.27;;;3.47;;
75169;SDS011;63749;49.186;9.222;2023-11-21T07:28:08;6.30;;;2.95;;
75169;SDS011;63749;49.186;9.222;2023-11-21T07:30:33;5.93;;;3.00;;
75169;SDS011;63749;49.186;9.222;2023-11-21T07:32:59;7.63;;;2.90;;
75169;SDS011;63749;49.186;9.222;2023-11-21T07:35:24;6.72;;;3.20;;
75169;SDS011;63749;49.186;9.222;2023-11-21T07:37:49;6.20;;;3.00;;
75169;SDS011;63749;49.186;9.222;2023-11-21T07:40:15;5.03;;;2.57;;
75169;SDS011;63749;49.186;9.222;2023-11-21T07:42:41;5.90;;;2.85;;
75169;SDS011;63749;49.186;9.222;2023-11-21T07:45:07;5.60;;;2.83;;
75169;SDS011;63749;49.186;9.222;2023-11-21T07:47:33;6.60;;;2.95;;
75169;SDS011;63749;49.186;9.222;2023-11-21T07:52:28;5.53;;;2.93;;
75169;SDS011;63749;49.186;9.222;2023-11-21T07:54:53;7.05;;;3.03;;
75169;SDS011;63749;49.186;9.222;2023-11-21T07:57:18;5.20;;;2.90;;
75169;SDS011;63749;49.186;9.222;2023-11-21T07:59:43;5.67;;;2.70;;
75169;SDS011;63749;49.186;9.222;2023-11-21T08:02:09;5.23;;;2.70;;
75169;SDS011;63749;49.186;9.222;2023-11-21T08:04:34;6.80;;;2.90;;
75169;SDS011;63749;49.186;9.222;2023-11-21T08:07:00;5.30;;;2.90;;
75169;SDS011;63749;49.186;9.222;2023-11-21T08:09:26;5.50;;;2.80;;
75169;SDS011;63749;49.186;9.222;2023-11-21T08:11:52;4.83;;;2.80;;
75169;SDS011;63749;49.186;9.222;2023-11-21T08:14:18;5.82;;;3.10;;
75169;SDS011;63749;49.186;9.222;2023-11-21T08:16:43;5.10;;;2.90;;
75169;SDS011;63749;49.186;9.222;2023-11-21T08:19:09;5.55;;;2.70;;
75169;SDS011;63749;49.186;9.222;2023-11-21T08:21:36;6.72;;;2.90;;
75169;SDS011;63749;49.186;9.222;2023-11-21T08:24:02;6.33;;;3.10;;
75169;SDS011;63749;49.186;9.222;2023-11-21T08:26:29;4.55;;;2.88;;
75169;SDS011;63749;49.186;9.222;2023-11-21T08:28:55;7.25;;;3.50;;
75169;SDS011;63749;49.186;9.222;2023-11-21T08:31:25;7.90;;;3.60;;
75169;SDS011;63749;49.186;9.222;2023-11-21T08:33:51;7.80;;;4.00;;
75169;SDS011;63749;49.186;9.222;2023-11-21T08:36:16;7.20;;;4.30;;
75169;SDS011;63749;49.186;9.222;2023-11-21T08:38:41;6.23;;;3.40;;
75169;SDS011;63749;49.186;9.222;2023-11-21T08:41:07;7.70;;;3.25;;
75169;SDS011;63749;49.186;9.222;2023-11-21T08:43:34;5.50;;;3.60;;
75169;SDS011;63749;49.186;9.222;2023-11-21T08:46:08;6.65;;;3.40;;
75169;SDS011;63749;49.186;9.222;2023-11-21T08:48:35;7.82;;;3.03;;
75169;SDS011;63749;49.186;9.222;2023-11-21T08:51:03;5.47;;;2.83;;
75169;SDS011;63749;49.186;9.222;2023-11-21T08:53:29;5.28;;;2.83;;
75169;SDS011;63749;49.186;9.222;2023-11-21T08:55:56;5.53;;;2.92;;
75169;SDS011;63749;49.186;9.222;2023-11-21T08:58:21;7.45;;;2.67;;
75169;SDS011;63749;49.186;9.222;2023-11-21T09:00:47;7.70;;;2.87;;
75169;SDS011;63749;49.186;9.222;2023-11-21T09:03:12;4.97;;;2.80;;
75169;SDS011;63749;49.186;9.222;2023-11-21T09:05:38;4.50;;;2.60;;
75169;SDS011;63749;49.186;9.222;2023-11-21T09:08:04;4.57;;;2.63;;
75169;SDS011;63749;49.186;9.222;2023-11-21T09:10:30;7.82;;;2.90;;
75169;SDS011;63749;49.186;9.222;2023-11-21T09:12:55;4.53;;;2.60;;
75169;SDS011;63749;49.186;9.222;2023-11-21T09:15:21;5.37;;;2.47;;
75169;SDS011;63749;49.186;9.222;2023-11-21T09:17:46;4.75;;;2.50;;
75169;SDS011;63749;49.186;9.222;2023-11-21T09:20:12;4.33;;;2.53;;
75169;SDS011;63749;49.186;9.222;2023-11-21T09:22:39;5.88;;;3.53;;
75169;SDS011;63749;49.186;9.222;2023-11-21T09:25:05;4.72;;;2.47;;
75169;SDS011;63749;49.186;9.222;2023-11-21T09:27:32;4.23;;;2.30;;
75169;SDS011;63749;49.186;9.222;2023-11-21T09:29:57;4.93;;;2.80;;
75169;SDS011;63749;49.186;9.222;2023-11-21T09:32:23;7.17;;;3.20;;
75169;SDS011;63749;49.186;9.222;2023-11-21T09:34:49;4.23;;;2.60;;
75169;SDS011;63749;49.186;9.222;2023-11-21T09:37:15;3.92;;;2.53;;
75169;SDS011;63749;49.186;9.222;2023-11-21T09:39:40;4.97;;;2.55;;
75169;SDS011;63749;49.186;9.222;2023-11-21T09:42:14;5.23;;;2.80;;
75169;SDS011;63749;49.186;9.222;2023-11-21T09:44:45;3.70;;;2.58;;
75169;SDS011;63749;49.186;9.222;2023-11-21T09:47:30;4.50;;;2.90;;
75169;SDS011;63749;49.186;9.222;2023-11-21T09:49:56;5.13;;;2.80;;
75169;SDS011;63749;49.186;9.222;2023-11-21T09:52:26;5.70;;;2.90;;
75169;SDS011;63749;49.186;9.222;2023-11-21T09:54:53;5.23;;;2.90;;
75169;SDS011;63749;49.186;9.222;2023-11-21T09:57:22;4.15;;;2.53;;
75169;SDS011;63749;49.186;9.222;2023-11-21T09:59:50;5.72;;;3.40;;
75169;SDS011;63749;49.186;9.222;2023-11-21T10:02:17;6.32;;;3.50;;
75169;SDS011;63749;49.186;9.222;2023-11-21T10:04:46;5.28;;;2.95;;
75169;SDS011;63749;49.186;9.222;2023-11-21T10:07:12;6.50;;;3.80;;
75169;SDS011;63749;49.186;9.222;2023-11-21T10:09:41;6.32;;;3.67;;
75169;SDS011;63749;49.186;9.222;2023-11-21T10:12:06;6.22;;;3.55;;
75169;SDS011;63749;49.186;9.222;2023-11-21T10:14:34;7.17;;;3.97;;
75169;SDS011;63749;49.186;9.222;2023-11-21T10:17:02;5.20;;;3.55;;
75169;SDS011;63749;49.186;9.222;2023-11-21T10:19:28;5.82;;;3.85;;
75169;SDS011;63749;49.186;9.222;2023-11-21T10:21:54;5.32;;;3.65;;
75169;SDS011;63749;49.186;9.222;2023-11-21T10:24:22;5.63;;;3.63;;
75169;SDS011;63749;49.186;9.222;2023-11-21T10:26:48;6.40;;;4.15;;
75169;SDS011;63749;49.186;9.222;2023-11-21T10:29:14;5.50;;;3.87;;
75169;SDS011;63749;49.186;9.222;2023-11-21T10:31:43;7.50;;;4.32;;
75169;SDS011;63749;49.186;9.222;2023-11-21T10:36:39;4.60;;;2.53;;
75169;SDS011;63749;49.186;9.222;2023-11-21T10:39:05;4.60;;;2.67;;
75169;SDS011;63749;49.186;9.222;2023-11-21T10:41:30;3.83;;;2.23;;
75169;SDS011;63749;49.186;9.222;2023-11-21T10:43:58;4.05;;;1.90;;
75169;SDS011;63749;49.186;9.222;2023-11-21T10:46:23;2.67;;;1.40;;
75169;SDS011;63749;49.186;9.222;2023-11-21T10:48:53;2.63;;;1.52;;
75169;SDS011;63749;49.186;9.222;2023-11-21T10:51:22;2.50;;;1.30;;
75169;SDS011;63749;49.186;9.222;2023-11-21T10:53:49;4.50;;;1.87;;
75169;SDS011;63749;49.186;9.222;2023-11-21T10:56:16;5.03;;;1.60;;
75169;SDS011;63749;49.186;9.222;2023-11-21T10:58:48;3.03;;;1.08;;
75169;SDS011;63749;49.186;9.222;2023-11-21T11:01:15;2.60;;;1.08;;
75169;SDS011;63749;49.186;9.222;2023-11-21T11:03:43;2.25;;;1.30;;
75169;SDS011;63749;49.186;9.222;2023-11-21T11:06:09;2.10;;;1.27;;
75169;SDS011;63749;49.186;9.222;2023-11-21T11:08:38;1.30;;;0.80;;
75169;SDS011;63749;49.186;9.222;2023-11-21T11:11:07;1.63;;;0.90;;
75169;SDS011;63749;49.186;9.222;2023-11-21T11:13:35;1.30;;;0.82;;
75169;SDS011;63749;49.186;9.222;2023-11-21T11:16:03;1.50;;;0.90;;
75169;SDS011;63749;49.186;9.222;2023-11-21T11:18:32;1.40;;;0.90;;
75169;SDS011;63749;49.186;9.222;2023-11-21T11:38:05;1.80;;;0.90;;
75169;SDS011;63749;49.186;9.222;2023-11-21T11:40:40;1.45;;;0.80;;
75169;SDS011;63749;49.186;9.222;2023-11-21T11:43:08;0.95;;;0.77;;
75169;SDS011;63749;49.186;9.222;2023-11-21T11:45:34;1.17;;;0.77;;
75169;SDS011;63749;49.186;9.222;2023-11-21T11:48:10;1.35;;;0.85;;
75169;SDS011;63749;49.186;9.222;2023-11-21T11:50:41;1.98;;;0.93;;
75169;SDS011;63749;49.186;9.222;2023-11-21T11:53:28;1.23;;;0.90;;
75169;SDS011;63749;49.186;9.222;2023-11-21T11:58:44;2.03;;;1.20;;
75169;SDS011;63749;49.186;9.222;2023-11-21T12:01:10;1.77;;;1.13;;
75169;SDS011;63749;49.186;9.222;2023-11-21T12:03:37;4.18;;;1.60;;
75169;SDS011;63749;49.186;9.222;2023-11-21T12:06:02;1.40;;;1.07;;
75169;SDS011;63749;49.186;9.222;2023-11-21T12:08:28;1.47;;;1.00;;
75169;SDS011;63749;49.186;9.222;2023-11-21T12:10:56;1.50;;;0.90;;
75169;SDS011;63749;49.186;9.222;2023-11-21T12:13:22;2.63;;;1.10;;
75169;SDS011;63749;49.186;9.222;2023-11-21T12:15:48;1.40;;;1.20;;
75169;SDS011;63749;49.186;9.222;2023-11-21T12:18:14;2.15;;;1.35;;
75169;SDS011;63749;49.186;9.222;2023-11-21T12:20:39;1.47;;;0.90;;
75169;SDS011;63749;49.186;9.222;2023-11-21T12:23:06;1.15;;;0.90;;
75169;SDS011;63749;49.186;9.222;2023-11-21T12:25:31;1.60;;;1.10;;
75169;SDS011;63749;49.186;9.222;2023-11-21T12:27:58;1.63;;;0.90;;
75169;SDS011;63749;49.186;9.222;2023-11-21T12:30:28;2.45;;;0.90;;
75169;SDS011;63749;49.186;9.222;2023-11-21T12:32:58;1.60;;;0.90;;
75169;SDS011;63749;49.186;9.222;2023-11-21T12:35:27;2.58;;;0.90;;
75169;SDS011;63749;49.186;9.222;2023-11-21T12:37:59;1.43;;;0.90;;
75169;SDS011;63749;49.186;9.222;2023-11-21T12:40:24;1.50;;;1.02;;
75169;SDS011;63749;49.186;9.222;2023-11-21T12:42:58;2.70;;;1.08;;
75169;SDS011;63749;49.186;9.222;2023-11-21T12:45:26;1.70;;;0.90;;
75169;SDS011;63749;49.186;9.222;2023-11-21T12:47:55;2.47;;;1.10;;
75169;SDS011;63749;49.186;9.222;2023-11-21T12:50:32;2.03;;;1.20;;
75169;SDS011;63749;49.186;9.222;2023-11-21T12:53:02;1.90;;;1.30;;
75169;SDS011;63749;49.186;9.222;2023-11-21T12:55:30;3.90;;;1.45;;
75169;SDS011;63749;49.186;9.222;2023-11-21T12:58:03;4.67;;;1.77;;
75169;SDS011;63749;49.186;9.222;2023-11-21T13:00:43;6.85;;;4.07;;
75169;SDS011;63749;49.186;9.222;2023-11-21T13:03:13;3.03;;;2.10;;
75169;SDS011;63749;49.186;9.222;2023-11-21T13:05:44;2.35;;;1.70;;
75169;SDS011;63749;49.186;9.222;2023-11-21T13:08:16;3.92;;;2.70;;
75169;SDS011;63749;49.186;9.222;2023-11-21T13:10:45;3.40;;;1.70;;
75169;SDS011;63749;49.186;9.222;2023-11-21T13:13:12;2.85;;;1.65;;
75169;SDS011;63749;49.186;9.222;2023-11-21T13:18:20;3.10;;;1.55;;
75169;SDS011;63749;49.186;9.222;2023-11-21T13:20:46;4.90;;;2.22;;
75169;SDS011;63749;49.186;9.222;2023-11-21T13:23:14;3.23;;;2.00;;
75169;SDS011;63749;49.186;9.222;2023-11-21T13:25:41;3.22;;;2.00;;
75169;SDS011;63749;49.186;9.222;2023-11-21T13:28:10;3.67;;;2.00;;
75169;SDS011;63749;49.186;9.222;2023-11-21T13:30:36;4.15;;;2.30;;
75169;SDS011;63749;49.186;9.222;2023-11-21T13:33:02;3.63;;;2.00;;
75169;SDS011;63749;49.186;9.222;2023-11-21T13:35:33;2.70;;;1.95;;
75169;SDS011;63749;49.186;9.222;2023-11-21T13:38:07;3.60;;;2.20;;
75169;SDS011;63749;49.186;9.222;2023-11-21T13:40:35;3.38;;;2.03;;
75169;SDS011;63749;49.186;9.222;2023-11-21T13:43:08;4.65;;;2.58;;
75169;SDS011;63749;49.186;9.222;2023-11-21T13:45:35;4.33;;;2.67;;
75169;SDS011;63749;49.186;9.222;2023-11-21T13:48:01;4.75;;;2.45;;
75169;SDS011;63749;49.186;9.222;2023-11-21T13:50:27;3.97;;;2.30;;
75169;SDS011;63749;49.186;9.222;2023-11-21T13:52:59;3.85;;;2.38;;
75169;SDS011;63749;49.186;9.222;2023-11-21T13:55:33;4.33;;;2.40;;
75169;SDS011;63749;49.186;9.222;2023-11-21T13:58:00;4.53;;;2.33;;
75169;SDS011;63749;49.186;9.222;2023-11-21T14:00:30;4.00;;;2.90;;
75169;SDS011;63749;49.186;9.222;2023-11-21T14:03:07;3.20;;;2.58;;
75169;SDS011;63749;49.186;9.222;2023-11-21T14:05:42;3.95;;;2.60;;
75169;SDS011;63749;49.186;9.222;2023-11-21T14:08:10;5.90;;;3.37;;
75169;SDS011;63749;49.186;9.222;2023-11-21T14:10:37;4.50;;;3.05;;
75169;SDS011;63749;49.186;9.222;2023-11-21T14:13:08;3.83;;;2.90;;
75169;SDS011;63749;49.186;9.222;2023-11-21T14:15:38;5.03;;;2.80;;
75169;SDS011;63749;49.186;9.222;2023-11-21T14:18:10;4.72;;;2.97;;
75169;SDS011;63749;49.186;9.222;2023-11-21T14:20:39;3.63;;;2.70;;
75169;SDS011;63749;49.186;9.222;2023-11-21T14:23:05;3.95;;;2.60;;
75169;SDS011;63749;49.186;9.222;2023-11-21T14:25:34;2.90;;;2.30;;
75169;SDS011;63749;49.186;9.222;2023-11-21T14:28:02;2.63;;;1.93;;
75169;SDS011;63749;49.186;9.222;2023-11-21T14:30:28;2.42;;;2.00;;
75169;SDS011;63749;49.186;9.222;2023-11-21T14:32:57;3.22;;;2.20;;
75169;SDS011;63749;49.186;9.222;2023-11-21T14:35:23;3.35;;;1.90;;
75169;SDS011;63749;49.186;9.222;2023-11-21T14:37:48;2.63;;;1.83;;
75169;SDS011;63749;49.186;9.222;2023-11-21T14:40:14;2.42;;;1.70;;
75169;SDS011;63749;49.186;9.222;2023-11-21T14:42:41;2.57;;;1.60;;
75169;SDS011;63749;49.186;9.222;2023-11-21T14:45:07;3.42;;;1.55;;
75169;SDS011;63749;49.186;9.222;2023-11-21T14:47:33;3.75;;;1.42;;
75169;SDS011;63749;49.186;9.222;2023-11-21T14:50:00;3.65;;;1.60;;
75169;SDS011;63749;49.186;9.222;2023-11-21T14:52:48;2.95;;;1.63;;
75169;SDS011;63749;49.186;9.222;2023-11-21T14:55:24;5.37;;;2.00;;
75169;SDS011;63749;49.186;9.222;2023-11-21T14:57:57;3.78;;;2.22;;
75169;SDS011;63749;49.186;9.222;2023-11-21T15:00:55;7.47;;;3.20;;
75169;SDS011;63749;49.186;9.222;2023-11-21T15:03:25;6.63;;;2.90;;
75169;SDS011;63749;49.186;9.222;2023-11-21T15:06:12;6.47;;;2.85;;
75169;SDS011;63749;49.186;9.222;2023-11-21T15:08:51;8.27;;;4.23;;
75169;SDS011;63749;49.186;9.222;2023-11-21T15:11:30;7.07;;;3.85;;
75169;SDS011;63749;49.186;9.222;2023-11-21T15:13:56;5.85;;;2.97;;